Granada, Nicaragua
Current Conditions -  °F | °C
As of 11:00 AM on Friday 28 Nov 2014 (Local Time) from MNMG Reporting Station
Few Clouds Few Clouds  
Wind Chill: 88°   Ceiling: Unl
Heat Index: 94°   Visibility: 6mi
Dew Point: 72°   Wind: 16mph
Humidity: 58%   Direction: 50°NE
Pressure: 29.85"   Gusts: NA
Location:  11.94°N, 85.96°W
Report Text: MNMG 281700Z 05014KT 9999 FEW023 31/22 Q1011 A2986 NOSIG
Loading
Personal Weather Stations






























Interactive Weather Map New forecast layout! Learn more

10-Day Weather Forecast

Advertisements
Track Severe Weather on mobile